Versailles, Ohio
Current Conditions -  °F | °C
As of 5:11 AM on Thursday 29 Jan 2015 (Local Time) from KAXV Reporting Station
Broken Clouds Broken Clouds  
Wind Chill: 23°   Ceiling: 6000
Heat Index: 34°   Visibility: 10mi
Dew Point: 25°   Wind: 17mph
Humidity: 70%   Direction: 160°SSE
Pressure: 29.87"   Gusts: 24mph
Location:  40.22°N, 84.48°W
Report Text: KAXV 291011Z AUTO 16015G21KT 10SM BKN060 01/M04 A2987 RMK AO2
Loading
Personal Weather Stations






























Interactive Weather Map New forecast layout! Learn more

10-Day Weather Forecast

Advertisements
Track Severe Weather on mobile